Latest Weather Observations for Flinders Island Airport

IDT60801

Issued at 7:05 pm EDT Saturday 29 November 2014 (issued every 30 minutes, with the page automatically refreshed every 10 minutes)

About weather observations | Map of weather stations | Latest weather observations for TAS | Other Formats
Station Details ID: 099005 Name: FLINDERS ISLAND AIRPORT Lat: -40.09 Lon: 148.00 Height: 9.0 m
Data from the previous 72 hours. | See also: Recent months at Flinders Island Airport
Date/Time
EDT
Temp
°C
App
Temp
°C
Dew
Point
Rel
Hum
%
Delta-T
°C
Wind Press
QNH
hPa
Press
MSL
hPa
Rain
since 9 am
mm
Dir
 
Spd
km/h
Gust
km/h
Spd
kts
Gust
kts
29/07:00pm 18.9 16.4 13.5 71 3.1 E 19 33 10 18 1015.9 1015.9 0.0
29/06:40pm 19.1 16.1 13.7 71 3.1 E 22 33 12 18 1015.6 1015.6 0.0
29/06:30pm 18.9 16.2 13.5 71 3.1 E 20 33 11 18 1015.6 1015.6 0.0
29/06:00pm 19.9 16.8 13.4 66 3.7 E 22 33 12 18 1015.3 1015.3 0.0
29/05:30pm 20.6 16.5 13.8 65 3.9 E 28 37 15 20 1015.3 1015.3 0.0
29/05:00pm 20.9 16.5 11.8 56 5.1 E 26 37 14 20 1015.4 1015.4 0.0
29/04:30pm 21.7 18.4 12.8 57 5.1 E 22 33 12 18 1015.3 1015.3 0.0
29/04:00pm 22.6 18.7 13.4 56 5.3 ENE 26 37 14 20 1015.4 1015.4 0.0
29/03:30pm 21.7 17.9 12.5 56 5.2 E 24 35 13 19 1015.6 1015.6 0.0
29/03:00pm 22.5 19.4 12.2 52 5.8 E 20 30 11 16 1015.8 1015.8 0.0
29/02:30pm 22.5 19.0 10.9 48 6.4 E 20 30 11 16 1016.0 1016.0 0.0
29/02:00pm 23.1 20.0 12.1 50 6.2 E 20 32 11 17 1016.2 1016.2 0.0
29/01:30pm 22.4 19.6 11.5 50 6.1 E 17 24 9 13 1016.3 1016.3 0.0
29/01:00pm 22.4 18.4 10.5 47 6.5 ENE 22 32 12 17 1016.3 1016.3 0.0
29/12:30pm 21.6 18.7 11.0 51 5.8 E 17 28 9 15 1016.6 1016.6 0.0
29/12:00pm 20.7 17.3 10.5 52 5.5 E 19 32 10 17 1016.9 1016.9 0.0
29/11:30am 20.0 16.8 11.2 57 4.8 E 19 28 10 15 1017.3 1017.3 0.0
29/11:00am 21.0 18.7 10.5 51 5.7 ESE 13 19 7 10 1017.5 1017.5 0.0
29/10:30am 20.8 18.5 11.7 56 5.1 E 15 24 8 13 1017.8 1017.8 0.0
29/10:00am 19.8 17.7 11.0 57 4.8 E 13 20 7 11 1018.1 1018.0 0.0
29/09:30am 19.4 17.1 11.7 61 4.2 ENE 15 20 8 11 1018.2 1018.1 0.0
29/09:00am 18.5 16.8 12.3 67 3.4 E 13 17 7 9 1018.7 1018.6 0.0
29/08:30am 17.6 16.5 13.1 75 2.5 E 11 15 6 8 1019.0 1018.9 0.0
29/08:00am 16.3 15.7 13.4 83 1.6 ESE 9 15 5 8 1019.0 1018.9 0.0
29/07:30am 13.2 12.1 11.9 92 0.7 ENE 9 11 5 6 1019.0 1018.9 0.0
29/07:00am 10.3 8.2 9.7 96 0.3 ENE 11 13 6 7 1018.9 1018.8 0.0
29/06:30am 7.6 4.9 7.2 97 0.2 ENE 11 15 6 8 1018.8 1018.7 0.0
29/06:00am 4.7 1.0 4.3 97 0.2 ENE 13 15 7 8 1018.7 1018.6 0.0
29/05:30am 5.0 2.1 4.6 97 0.2 NE 9 13 5 7 1018.8 1018.7 0.0
29/05:00am 5.0 1.7 4.6 97 0.2 ENE 11 15 6 8 1018.8 1018.7 0.0
29/04:30am 5.1 1.4 4.5 96 0.3 NE 13 15 7 8 1018.6 1018.5 0.0
29/04:00am 5.7 2.5 5.1 96 0.3 NE 11 13 6 7 1018.6 1018.5 0.0
29/03:30am 6.0 2.9 5.4 96 0.3 NE 11 13 6 7 1018.7 1018.6 0.0
29/03:14am 7.3 4.9 6.9 97 0.2 NNE 9 11 5 6 1018.8 1018.7 0.0
29/03:00am 7.2 4.0 6.8 97 0.2 NE 13 15 7 8 1019.0 1018.9 0.0
29/02:36am 6.2 3.5 5.6 96 0.3 ENE 9 13 5 7 1019.4 1019.3 0.0
29/02:30am 5.5 2.6 4.9 96 0.3 ENE 9 11 5 6 1019.4 1019.3 0.0
29/02:00am 5.9 3.1 5.3 96 0.3 NE 9 11 5 6 1019.4 1019.3 0.0
29/01:30am 6.2 3.5 5.6 96 0.3 ENE 9 11 5 6 1019.7 1019.6 0.0
29/01:00am 6.0 4.2 5.3 95 0.3 NE 4 7 2 4 1020.1 1020.0 0.0
29/12:30am 6.0 2.1 5.3 95 0.3 ENE 15 17 8 9 1020.1 1020.0 0.0
29/12:00am 6.5 3.4 5.6 94 0.4 ENE 11 13 6 7 1020.5 1020.4 0.0
 
Date/Time
EDT
Temp
°C
App
Temp
°C
Dew
Point
Rel
Hum
%
Delta-T
°C
Wind Press
QNH
hPa
Press
MSL
hPa
Rain
since 9 am
mm
Dir
 
Spd
km/h
Gust
km/h
Spd
kts
Gust
kts
28/11:30pm 7.6 4.4 6.7 94 0.4 ENE 13 17 7 9 1020.7 1020.6 0.0
28/11:00pm 8.2 5.5 7.4 95 0.4 NE 11 13 6 7 1020.8 1020.7 0.0
28/10:30pm 7.4 4.1 6.3 93 0.5 ENE 13 15 7 8 1021.1 1021.0 0.0
28/10:00pm 9.4 7.2 8.0 91 0.7 NE 9 13 5 7 1021.1 1021.0 0.0
28/09:30pm 10.5 8.6 9.1 91 0.7 NE 9 13 5 7 1021.2 1021.1 0.0
28/09:00pm 11.7 10.3 8.9 83 1.4 NW 6 7 3 4 1021.0 1020.9 0.0
28/08:30pm 13.3 11.9 9.7 79 1.8 NW 7 9 4 5 1020.6 1020.5 0.0
28/08:00pm 14.6 13.6 10.2 75 2.3 NW 6 7 3 4 1020.5 1020.4 0.0
28/07:30pm 15.1 13.9 10.3 73 2.5 NW 7 9 4 5 1020.5 1020.4 0.0
28/07:00pm 15.5 13.9 10.1 70 2.8 WNW 9 15 5 8 1020.5 1020.4 0.0
28/06:30pm 16.0 12.4 9.9 67 3.2 W 19 26 10 14 1020.2 1020.1 0.0
28/06:00pm 16.4 12.0 9.1 62 3.8 W 22 26 12 14 1020.1 1020.0 0.0
28/05:30pm 16.6 12.9 10.0 65 3.5 W 20 28 11 15 1020.3 1020.2 0.0
28/05:00pm 16.6 12.7 10.7 68 3.1 W 22 28 12 15 1020.5 1020.4 0.0
28/04:30pm 16.8 12.8 10.6 67 3.3 W 22 30 12 16 1020.4 1020.3 0.0
28/04:00pm 17.0 12.7 9.4 61 3.9 W 22 28 12 15 1020.9 1020.8 0.0
28/03:30pm 17.0 12.0 9.4 61 4.0 W 26 32 14 17 1021.2 1021.1 0.0
28/03:00pm 17.1 11.7 9.5 61 4.0 W 28 33 15 18 1021.4 1021.3 0.0
28/02:30pm 17.1 11.8 10.0 63 3.7 W 28 33 15 18 1021.3 1021.2 0.0
28/02:00pm 17.4 12.2 10.3 63 3.8 W 28 35 15 19 1021.4 1021.3 0.0
28/01:30pm 16.9 11.8 9.3 61 3.9 W 26 33 14 18 1021.7 1021.6 0.0
28/01:00pm 17.4 11.7 9.8 61 4.0 W 30 37 16 20 1022.0 1021.9 0.0
28/12:30pm 17.7 12.0 9.8 60 4.2 W 30 35 16 19 1022.3 1022.2 0.0
28/12:00pm 17.2 11.4 9.6 61 4.0 W 30 35 16 19 1022.3 1022.2 0.0
28/11:30am 16.8 11.5 9.7 63 3.7 W 28 33 15 18 1022.7 1022.6 0.0
28/11:00am 17.0 12.0 9.7 62 3.8 W 26 33 14 18 1022.8 1022.7 0.0
28/10:30am 17.5 13.3 9.7 60 4.1 W 22 30 12 16 1022.8 1022.7 0.0
28/10:00am 16.8 13.1 10.0 64 3.6 WNW 20 30 11 16 1022.9 1022.8 0.0
28/09:30am 16.5 13.0 8.7 60 4.0 N 17 22 9 12 1023.3 1023.2 0.0
28/09:00am 16.2 12.6 9.8 66 3.3 NNW 19 33 10 18 1023.3 1023.2 0.0
28/08:30am 15.3 12.5 9.9 70 2.8 N 15 22 8 12 1023.4 1023.3 0.0
28/08:00am 14.8 12.4 10.0 73 2.5 NNW 13 22 7 12 1023.5 1023.4 0.0
28/07:30am 13.7 13.0 9.9 78 2.0 ENE 4 9 2 5 1023.4 1023.3 0.0
28/07:00am 10.9 9.6 9.3 90 0.8 ENE 6 9 3 5 1023.2 1023.1 0.0
28/06:30am 8.0 4.9 7.2 95 0.4 NE 13 13 7 7 1023.0 1022.9 0.0
28/06:00am 6.1 3.4 5.4 95 0.3 NE 9 11 5 6 1023.0 1022.9 0.0
28/05:30am 5.8 2.9 4.9 94 0.4 ENE 9 11 5 6 1022.9 1022.8 0.0
28/05:00am 7.1 4.9 6.0 93 0.5 NE 7 9 4 5 1022.8 1022.7 0.0
28/04:30am 8.2 5.9 7.3 94 0.4 NE 9 11 5 6 1022.8 1022.7 0.0
28/04:00am 7.9 5.8 6.5 91 0.6 NE 7 9 4 5 1022.7 1022.6 0.0
28/03:30am 8.5 6.5 7.0 90 0.7 NE 7 9 4 5 1022.8 1022.7 0.0
28/03:00am 10.4 8.0 8.8 90 0.8 NE 11 13 6 7 1022.7 1022.6 0.0
28/02:30am 9.5 6.9 7.9 90 0.8 NE 11 13 6 7 1022.9 1022.8 0.0
28/02:00am 10.1 7.8 8.9 92 0.6 NE 11 15 6 8 1023.1 1023.0 0.0
28/01:30am 9.0 6.0 7.8 92 0.6 ENE 13 15 7 8 1023.3 1023.2 0.0
28/01:00am 9.6 5.9 8.0 90 0.8 NE 17 19 9 10 1023.5 1023.4 0.0
28/12:30am 10.3 6.7 8.2 87 1.0 NE 17 19 9 10 1023.7 1023.6 0.0
28/12:00am 12.2 8.5 9.6 84 1.3 NE 19 19 10 10 1023.9 1023.8 0.0
 
Date/Time
EDT
Temp
°C
App
Temp
°C
Dew
Point
Rel
Hum
%
Delta-T
°C
Wind Press
QNH
hPa
Press
MSL
hPa
Rain
since 9 am
mm
Dir
 
Spd
km/h
Gust
km/h
Spd
kts
Gust
kts
27/11:30pm 8.8 6.5 7.3 90 0.7 NE 9 9 5 5 1024.2 1024.1 0.0
27/11:00pm 9.5 7.6 7.4 87 1.0 NE 7 7 4 4 1024.3 1024.2 0.0
27/10:30pm 10.0 7.8 7.8 86 1.1 NE 9 9 5 5 1024.3 1024.2 0.0
27/10:00pm 9.0 6.9 6.6 85 1.1 NE 7 9 4 5 1024.4 1024.3 0.0
27/09:30pm 8.8 7.9 5.9 82 1.3 CALM 0 4 0 2 1024.2 1024.1 0.0
27/09:00pm 10.9 9.0 6.8 76 1.9 NE 6 9 3 5 1024.1 1024.0 0.0
27/08:30pm 12.5 11.9 7.2 70 2.6 CALM 0 7 0 4 1024.0 1023.9 0.0
27/08:00pm 13.9 12.1 7.2 64 3.3 SW 6 9 3 5 1023.8 1023.7 0.0
27/07:30pm 14.5 12.0 6.6 59 3.8 SW 9 13 5 7 1023.6 1023.5 0.0
27/07:00pm 15.1 12.5 7.6 61 3.7 W 11 15 6 8 1023.5 1023.4 0.0
27/06:30pm 15.1 12.9 7.9 62 3.6 SW 9 13 5 7 1023.3 1023.2 0.0
27/06:00pm 15.4 12.6 8.4 63 3.5 SW 13 17 7 9 1023.1 1023.0 0.0
27/05:30pm 15.4 11.8 8.2 62 3.6 WSW 17 19 9 10 1023.0 1022.9 0.0
27/05:00pm 15.7 11.9 7.5 58 4.1 W 17 20 9 11 1023.0 1022.9 0.0
27/04:30pm 15.8 12.0 7.6 58 4.1 W 17 24 9 13 1023.3 1023.2 0.0
27/04:00pm 16.5 12.4 8.5 59 4.1 W 20 26 11 14 1023.5 1023.4 0.0
27/03:30pm 15.9 11.4 8.4 61 3.8 W 22 28 12 15 1023.4 1023.3 0.0
27/03:00pm 16.4 11.8 8.1 58 4.2 W 22 28 12 15 1023.6 1023.5 0.0
27/02:30pm 17.2 12.5 9.1 59 4.2 W 24 30 13 16 1023.6 1023.5 0.0
27/02:00pm 17.3 13.1 9.7 61 4.0 WSW 22 28 12 15 1023.7 1023.6 0.0
27/01:30pm 16.9 13.2 10.1 64 3.6 WSW 20 26 11 14 1023.4 1023.3 0.0
27/01:00pm 17.0 13.6 10.4 65 3.5 WSW 19 24 10 13 1023.5 1023.4 0.0
27/12:30pm 16.6 12.6 10.5 67 3.2 WSW 22 28 12 15 1023.6 1023.5 0.0
27/12:00pm 16.6 13.2 11.1 70 2.9 WSW 20 26 11 14 1023.7 1023.6 0.0
27/11:30am 16.7 13.7 10.5 67 3.3 WSW 17 22 9 12 1023.6 1023.5 0.0
27/11:00am 17.1 14.2 10.9 67 3.3 WSW 17 20 9 11 1023.6 1023.5 0.0
27/10:30am 17.1 14.4 10.5 65 3.5 SW 15 17 8 9 1023.7 1023.6 0.0
27/10:00am 16.3 14.0 10.4 68 3.1 SW 13 17 7 9 1023.6 1023.5 0.0
27/09:30am 16.1 13.5 10.6 70 2.9 SW 15 17 8 9 1023.7 1023.6 0.0
27/09:00am 15.2 13.4 10.8 75 2.3 W 11 13 6 7 1023.6 1023.5 0.0
27/08:30am 14.8 13.0 10.8 77 2.1 WSW 11 13 6 7 1023.4 1023.3 0.0
27/08:00am 15.1 14.7 11.1 77 2.1 N 4 9 2 5 1023.1 1023.0 0.0
27/07:30am 13.6 13.5 10.8 83 1.5 N 2 6 1 3 1022.7 1022.6 0.0
27/07:00am 11.2 11.0 10.3 94 0.5 NNW 2 7 1 4 1022.5 1022.4 0.0
27/06:30am 8.0 6.2 7.2 95 0.4 NE 6 7 3 4 1022.2 1022.1 0.0
27/06:00am 5.3 3.3 4.6 95 0.3 ENE 4 9 2 5 1021.9 1021.8 0.0
27/05:30am 5.4 3.4 4.4 93 0.4 ENE 4 6 2 3 1021.5 1021.4 0.0
27/05:00am 6.8 4.7 5.9 94 0.4 ENE 6 7 3 4 1021.0 1020.9 0.0
27/04:30am 6.4 4.0 5.4 93 0.4 ENE 7 9 4 5 1020.7 1020.6 0.0
27/04:00am 8.5 6.3 7.7 95 0.4 E 9 11 5 6 1020.4 1020.3 0.0
27/03:30am 8.3 5.0 6.6 89 0.8 ENE 13 22 7 12 1020.1 1020.0 0.0
27/03:00am 9.1 6.5 7.9 92 0.6 NE 11 11 6 6 1020.3 1020.2 0.0
27/02:30am 8.3 5.5 6.8 90 0.7 ENE 11 13 6 7 1020.1 1020.0 0.0
27/02:00am 9.3 6.0 8.2 93 0.5 ENE 15 19 8 10 1020.1 1020.0 0.0
27/01:30am 8.8 6.4 7.1 89 0.8 ENE 9 11 5 6 1020.0 1019.9 0.0
27/01:00am 10.6 8.4 7.8 83 1.3 NE 9 9 5 5 1020.1 1020.0 0.0
27/12:30am 13.6 9.3 9.5 76 2.1 WSW 22 28 12 15 1020.0 1019.9 0.0
27/12:00am 13.8 9.1 9.3 74 2.3 WSW 24 32 13 17 1020.1 1020.0 0.0
 
Date/Time
EDT
Temp
°C
App
Temp
°C
Dew
Point
Rel
Hum
%
Delta-T
°C
Wind Press
QNH
hPa
Press
MSL
hPa
Rain
since 9 am
mm
Dir
 
Spd
km/h
Gust
km/h
Spd
kts
Gust
kts
26/11:30pm 13.9 8.3 8.7 71 2.6 WSW 28 32 15 17 1020.3 1020.2 0.0
26/11:00pm 13.7 8.7 7.9 68 2.9 SW 24 32 13 17 1020.4 1020.3 0.0
26/10:30pm 13.7 8.8 8.3 70 2.7 WSW 24 32 13 17 1020.5 1020.4 0.0
26/10:00pm 14.2 8.4 7.9 66 3.1 SW 28 35 15 19 1020.3 1020.2 0.0
26/09:30pm 14.2 8.4 9.6 74 2.4 W 30 37 16 20 1019.9 1019.8 0.0
26/09:00pm 14.0 9.3 9.4 74 2.3 W 24 32 13 17 1019.6 1019.5 0.0
26/08:30pm 14.2 8.4 9.4 73 2.5 W 30 37 16 20 1019.4 1019.3 0.0
26/08:00pm 14.6 8.7 9.2 70 2.8 W 30 37 16 20 1019.3 1019.2 0.0
26/07:30pm 15.3 8.7 8.5 64 3.4 W 33 41 18 22 1018.9 1018.8 0.0

Other Formats:

Comma delimited format used in spreadsheet applications
http://www.bom.gov.au/fwo/IDT60801/IDT60801.94980.axf

JavaScript Object Notation format (JSON) in row-major order
http://www.bom.gov.au/fwo/IDT60801/IDT60801.94980.json